createdAt,value
2023-03-18T00:00:10.149Z,7.47
2023-03-18T00:04:13.072Z,7.63
2023-03-18T00:08:16.890Z,7.51
2023-03-18T00:12:20.055Z,7.22
2023-03-18T00:16:25.074Z,7.50
2023-03-18T00:20:38.606Z,7.68
2023-03-18T00:24:41.998Z,7.82
2023-03-18T00:28:44.903Z,7.79
2023-03-18T00:32:49.161Z,8.00
2023-03-18T00:36:57.027Z,7.98
2023-03-18T00:41:11.265Z,7.91
2023-03-18T00:45:16.333Z,7.89
2023-03-18T00:49:21.108Z,7.94
2023-03-18T00:53:26.086Z,8.33
2023-03-18T00:57:29.489Z,7.78
2023-03-18T01:01:32.700Z,7.67
2023-03-18T01:05:38.393Z,7.66
2023-03-18T01:09:44.294Z,7.37
2023-03-18T01:13:47.770Z,7.23
2023-03-18T01:17:52.599Z,7.39
2023-03-18T01:21:57.495Z,7.19
2023-03-18T01:26:00.493Z,7.43
2023-03-18T01:30:03.938Z,7.49
2023-03-18T01:34:08.251Z,7.64
2023-03-18T01:38:13.302Z,7.29
2023-03-18T01:42:18.404Z,7.47
2023-03-18T01:46:39.219Z,7.50
2023-03-18T01:50:43.575Z,7.43
2023-03-18T01:54:52.400Z,7.22
2023-03-18T01:58:57.714Z,7.44
2023-03-18T02:03:00.887Z,7.50
2023-03-18T02:07:04.172Z,7.35
2023-03-18T02:11:09.321Z,7.28
2023-03-18T02:15:16.607Z,7.25
2023-03-18T02:19:41.189Z,7.45
2023-03-18T02:23:52.579Z,7.26
2023-03-18T02:27:59.372Z,7.21
2023-03-18T02:32:03.489Z,7.48
2023-03-18T02:36:09.537Z,7.40
2023-03-18T02:40:17.943Z,6.96
2023-03-18T02:44:22.726Z,7.04
2023-03-18T02:48:30.010Z,7.28
2023-03-18T02:52:32.980Z,7.07
2023-03-18T02:56:36.481Z,7.07
2023-03-18T03:00:41.102Z,6.92
2023-03-18T03:04:44.382Z,7.05
2023-03-18T03:08:47.464Z,6.97
2023-03-18T03:12:51.692Z,7.06
2023-03-18T03:16:57.014Z,7.29
2023-03-18T03:21:00.028Z,6.87
2023-03-18T03:25:03.324Z,6.82
2023-03-18T03:29:08.649Z,6.92
2023-03-18T03:33:13.955Z,6.83
2023-03-18T03:37:16.699Z,7.02
2023-03-18T03:41:20.970Z,6.71
2023-03-18T03:45:25.163Z,6.58
2023-03-18T03:49:29.238Z,6.52
2023-03-18T03:53:32.327Z,6.53
2023-03-18T03:57:37.051Z,6.42
2023-03-18T04:01:40.351Z,6.61
2023-03-18T04:05:45.397Z,6.28
2023-03-18T04:09:48.129Z,5.85
2023-03-18T04:13:51.119Z,5.83
2023-03-18T04:17:54.699Z,5.19
2023-03-18T04:21:59.147Z,5.62
2023-03-18T04:26:02.044Z,5.62
2023-03-18T04:30:06.387Z,5.49
2023-03-18T04:34:09.880Z,4.99
2023-03-18T04:38:14.796Z,4.95
2023-03-18T04:42:18.384Z,4.83
2023-03-18T04:46:21.981Z,5.04
2023-03-18T04:50:25.741Z,4.48
2023-03-18T04:54:30.280Z,4.52
2023-03-18T04:58:34.165Z,4.72
2023-03-18T05:02:37.836Z,4.24
2023-03-18T05:06:41.134Z,3.99
2023-03-18T05:10:46.324Z,4.33
2023-03-18T05:14:49.465Z,4.61
2023-03-18T05:18:52.979Z,4.03
2023-03-18T05:22:55.867Z,3.68
2023-03-18T05:27:00.143Z,3.99
2023-03-18T05:31:03.748Z,4.55
2023-03-18T05:35:07.406Z,4.28
2023-03-18T05:39:13.205Z,4.29
2023-03-18T05:43:17.414Z,4.20
2023-03-18T05:47:20.526Z,4.30
2023-03-18T05:51:23.369Z,4.01
2023-03-18T05:55:26.430Z,4.32
2023-03-18T05:59:31.732Z,4.20
2023-03-18T06:03:35.052Z,4.36
2023-03-18T06:07:38.084Z,4.26
2023-03-18T06:11:41.298Z,4.33
2023-03-18T06:15:47.686Z,4.31
2023-03-18T06:19:51.987Z,4.24
2023-03-18T06:23:55.497Z,4.68
2023-03-18T06:27:58.868Z,5.06
2023-03-18T06:32:03.059Z,5.07
2023-03-18T06:36:07.001Z,5.10
2023-03-18T06:40:12.576Z,4.97
2023-03-18T06:44:15.728Z,5.33
2023-03-18T06:48:20.524Z,5.22
2023-03-18T06:52:24.231Z,5.50
2023-03-18T06:56:28.401Z,6.27
2023-03-18T07:00:32.026Z,6.55
2023-03-18T07:04:37.181Z,6.77
2023-03-18T07:08:40.650Z,6.56
2023-03-18T07:12:44.640Z,6.95
2023-03-18T07:16:48.149Z,7.49
2023-03-18T07:20:52.608Z,8.10
2023-03-18T07:24:56.085Z,8.62
2023-03-18T07:28:59.514Z,7.86
2023-03-18T07:33:02.649Z,8.61
2023-03-18T07:37:08.359Z,9.23
2023-03-18T07:41:11.265Z,8.25
2023-03-18T07:45:14.870Z,8.64
2023-03-18T07:49:18.343Z,8.33
2023-03-18T07:53:23.075Z,8.54
2023-03-18T07:57:26.269Z,8.87
2023-03-18T08:01:29.726Z,9.28
2023-03-18T08:05:41.095Z,9.38
2023-03-18T08:09:45.957Z,9.46
2023-03-18T08:13:48.959Z,9.24
2023-03-18T08:17:52.562Z,9.69
2023-03-18T08:21:55.774Z,9.70
2023-03-18T08:26:03.598Z,10.08
2023-03-18T08:30:08.346Z,10.64
2023-03-18T08:34:17.758Z,10.48
2023-03-18T08:38:21.103Z,10.24
2023-03-18T08:42:29.215Z,10.72
2023-03-18T08:46:32.010Z,10.94
2023-03-18T08:50:36.129Z,10.78
2023-03-18T08:54:39.097Z,10.98
2023-03-18T08:58:46.068Z,10.87
2023-03-18T09:02:50.151Z,11.29
2023-03-18T09:06:53.381Z,11.61
2023-03-18T09:10:57.071Z,11.19
2023-03-18T09:15:02.446Z,11.89
2023-03-18T09:19:05.861Z,12.76
2023-03-18T09:23:09.870Z,12.57
2023-03-18T09:27:14.618Z,12.12
2023-03-18T09:31:19.527Z,12.13
2023-03-18T09:35:22.296Z,12.40
2023-03-18T09:39:25.082Z,12.31
2023-03-18T09:43:44.886Z,12.17
2023-03-18T09:48:16.620Z,13.00
2023-03-18T09:52:23.487Z,12.47
2023-03-18T09:56:28.393Z,12.90
2023-03-18T10:00:34.184Z,12.09
2023-03-18T10:04:42.984Z,12.11
2023-03-18T10:08:52.017Z,12.42
2023-03-18T10:13:01.770Z,12.30
2023-03-18T10:17:13.629Z,12.50
2023-03-18T10:21:22.692Z,12.82
2023-03-18T10:25:29.105Z,12.68
2023-03-18T10:29:41.124Z,13.57
2023-03-18T10:33:48.049Z,13.75
2023-03-18T10:37:57.190Z,14.50
2023-03-18T10:42:02.608Z,15.03
2023-03-18T10:46:07.428Z,14.47
2023-03-18T10:50:19.709Z,14.78
2023-03-18T10:54:27.849Z,14.32
2023-03-18T10:58:31.182Z,14.28
2023-03-18T11:02:35.105Z,14.32
2023-03-18T11:06:44.440Z,14.21
2023-03-18T11:10:49.566Z,13.74
2023-03-18T11:14:55.561Z,13.88
2023-03-18T11:19:01.018Z,13.53
2023-03-18T11:23:13.270Z,13.64
2023-03-18T11:27:40.812Z,14.03
2023-03-18T11:31:52.559Z,14.05
2023-03-18T11:35:59.724Z,14.16
2023-03-18T11:40:26.575Z,14.10
2023-03-18T11:44:34.112Z,14.39
2023-03-18T11:48:39.875Z,14.57
2023-03-18T11:52:46.344Z,14.82
2023-03-18T11:56:52.651Z,14.70
2023-03-18T12:01:02.346Z,15.86
2023-03-18T12:05:18.836Z,15.63
2023-03-18T12:09:29.871Z,15.02
2023-03-18T12:13:41.060Z,15.35
2023-03-18T12:17:51.994Z,14.93
2023-03-18T12:22:07.589Z,15.96
2023-03-18T12:26:14.656Z,15.05
2023-03-18T12:30:38.721Z,15.92
2023-03-18T12:34:59.507Z,17.05
2023-03-18T12:39:37.166Z,17.40
2023-03-18T12:43:48.603Z,15.98
2023-03-18T12:47:54.570Z,16.88
2023-03-18T12:52:04.309Z,16.17
2023-03-18T12:56:14.430Z,15.29
2023-03-18T13:00:26.436Z,16.14
2023-03-18T13:04:32.776Z,17.09
2023-03-18T13:08:55.277Z,18.14
2023-03-18T13:13:01.247Z,15.79
2023-03-18T13:17:05.241Z,16.11
2023-03-18T13:21:08.997Z,16.42
2023-03-18T13:25:21.247Z,15.97
2023-03-18T13:29:33.049Z,15.13
2023-03-18T13:34:13.390Z,15.16
2023-03-18T13:38:23.332Z,15.63
2023-03-18T13:42:30.009Z,16.99
2023-03-18T13:46:35.059Z,15.89
2023-03-18T13:50:40.267Z,15.69
2023-03-18T13:54:43.290Z,16.82
2023-03-18T14:04:32.415Z,16.35
2023-03-18T14:08:47.358Z,16.13
2023-03-18T15:31:05.125Z,15.93
2023-03-18T15:35:15.255Z,15.96
2023-03-18T15:39:31.171Z,15.96
2023-03-18T15:43:40.246Z,15.64
2023-03-18T15:47:46.270Z,15.74
2023-03-18T15:51:50.175Z,15.82
2023-03-18T15:55:57.475Z,15.99
2023-03-18T16:00:00.526Z,15.71
2023-03-18T16:04:07.096Z,15.62
2023-03-18T16:08:15.009Z,15.56
2023-03-18T16:12:20.078Z,15.46
2023-03-18T16:16:28.561Z,15.34
2023-03-18T16:20:33.261Z,15.33
2023-03-18T16:24:35.967Z,15.23
2023-03-18T16:28:39.478Z,15.20
2023-03-18T16:32:43.317Z,15.09
2023-03-18T16:36:51.288Z,15.09
2023-03-18T16:40:55.523Z,14.83
2023-03-18T16:44:58.348Z,14.64
2023-03-18T16:49:01.224Z,14.80
2023-03-18T16:53:13.946Z,14.59
2023-03-18T16:57:18.889Z,14.62
2023-03-18T17:01:24.814Z,14.20
2023-03-18T17:05:27.733Z,13.60
2023-03-18T17:09:32.896Z,13.40
2023-03-18T17:13:37.944Z,13.76
2023-03-18T17:17:42.201Z,13.28
2023-03-18T17:21:44.996Z,12.76
2023-03-18T17:25:54.883Z,12.30
2023-03-18T17:29:57.673Z,11.57
2023-03-18T17:34:00.832Z,11.40
2023-03-18T17:38:03.842Z,11.43
2023-03-18T17:42:21.723Z,11.14
2023-03-18T17:46:24.715Z,11.12
2023-03-18T17:50:27.454Z,10.86
2023-03-18T17:54:31.626Z,10.95
2023-03-18T17:58:36.089Z,10.76
2023-03-18T18:02:39.498Z,10.37
2023-03-18T18:06:42.239Z,10.06
2023-03-18T18:10:45.615Z,9.42
2023-03-18T18:14:49.793Z,9.60
2023-03-18T18:18:53.033Z,9.83
2023-03-18T18:22:57.750Z,9.70
2023-03-18T18:27:01.046Z,9.59
2023-03-18T18:31:08.041Z,9.79
2023-03-18T18:35:15.518Z,8.81
2023-03-18T18:39:18.414Z,9.05
2023-03-18T18:51:57.446Z,8.15
2023-03-18T18:56:02.731Z,8.59
2023-03-18T19:00:11.457Z,8.71
2023-03-18T19:04:15.572Z,7.96
2023-03-18T19:08:27.875Z,8.36
2023-03-18T19:12:30.565Z,7.81
2023-03-18T19:16:38.186Z,7.82
2023-03-18T19:20:41.914Z,8.17
2023-03-18T19:24:50.157Z,8.05
2023-03-18T19:28:59.850Z,8.04
2023-03-18T19:33:03.918Z,8.26
2023-03-18T19:37:08.311Z,8.14
2023-03-18T19:41:13.470Z,8.06
2023-03-18T19:45:16.835Z,7.57
2023-03-18T19:49:22.597Z,7.80
2023-03-18T19:53:25.548Z,8.14
2023-03-18T19:57:31.923Z,8.13
2023-03-18T20:01:34.653Z,7.96
2023-03-18T20:05:37.842Z,8.06
2023-03-18T20:09:40.641Z,7.76
2023-03-18T20:13:45.965Z,8.00
2023-03-18T20:17:49.674Z,7.86
2023-03-18T20:21:52.541Z,8.33
2023-03-18T20:25:57.095Z,7.94
2023-03-18T20:30:03.407Z,8.34
2023-03-18T20:34:06.917Z,8.29
2023-03-18T20:38:17.812Z,8.01
2023-03-18T20:42:20.988Z,8.07
2023-03-18T20:46:25.761Z,8.30
2023-03-18T20:50:33.582Z,8.44
2023-03-18T20:54:36.788Z,8.33
2023-03-18T20:58:39.610Z,8.20
2023-03-18T21:02:47.816Z,8.35
2023-03-18T21:06:53.858Z,8.24
2023-03-18T21:11:20.572Z,8.51
2023-03-18T21:15:24.723Z,8.10
2023-03-18T21:19:29.860Z,8.01
2023-03-18T21:23:44.285Z,7.97
2023-03-18T21:28:16.008Z,8.22
2023-03-18T21:32:32.894Z,8.21
2023-03-18T21:36:47.278Z,8.39
2023-03-18T21:40:59.466Z,8.46
2023-03-18T21:45:06.730Z,7.84
2023-03-18T21:49:16.356Z,8.40
2023-03-18T21:53:33.089Z,7.98
2023-03-18T21:57:38.855Z,8.38
2023-03-18T22:01:42.715Z,7.90
2023-03-18T22:05:49.357Z,8.20
2023-03-18T22:09:57.824Z,8.35
2023-03-18T22:14:01.887Z,7.62
2023-03-18T22:18:05.284Z,7.45
2023-03-18T22:22:11.970Z,7.75
2023-03-18T22:26:18.071Z,7.65
2023-03-18T22:30:21.594Z,7.34
2023-03-18T22:34:25.404Z,7.65
2023-03-18T22:38:30.108Z,7.93
2023-03-18T22:42:34.668Z,8.06
2023-03-18T22:46:37.640Z,8.18
2023-03-18T22:50:40.617Z,7.50
2023-03-18T22:54:43.782Z,7.53
2023-03-18T22:58:49.306Z,7.53
2023-03-18T23:02:52.560Z,7.68
2023-03-18T23:06:56.218Z,7.58
2023-03-18T23:11:02.520Z,8.08
2023-03-18T23:15:08.806Z,7.74
2023-03-18T23:19:11.951Z,7.67
2023-03-18T23:23:15.550Z,7.80
2023-03-18T23:27:23.264Z,7.73
2023-03-18T23:31:27.582Z,7.72
2023-03-18T23:35:31.384Z,8.08
2023-03-18T23:39:34.258Z,7.86
2023-03-18T23:43:37.280Z,7.48
2023-03-18T23:47:44.072Z,7.90
2023-03-18T23:51:47.346Z,8.04
2023-03-18T23:55:52.028Z,7.51
2023-03-18T23:59:54.808Z,7.25
